sensor_id;sensor_type;location;lat;lon;timestamp;pressure;altitude;pressure_sealevel;temperature;humidity
11114;BME280;5610;52.154;9.198;2023-05-11T00:01:30;100511.47;;;14.39;100.00
11114;BME280;5610;52.154;9.198;2023-05-11T00:04:15;100515.59;;;14.43;100.00
11114;BME280;5610;52.154;9.198;2023-05-11T00:07:01;100516.81;;;14.39;100.00
11114;BME280;5610;52.154;9.198;2023-05-11T00:09:46;100511.94;;;14.44;100.00
11114;BME280;5610;52.154;9.198;2023-05-11T00:12:31;100515.59;;;14.43;100.00
11114;BME280;5610;52.154;9.198;2023-05-11T00:15:16;100516.34;;;14.45;100.00
11114;BME280;5610;52.154;9.198;2023-05-11T00:18:03;100514.03;;;14.51;100.00
11114;BME280;5610;52.154;9.198;2023-05-11T00:20:48;100518.31;;;14.54;100.00
11114;BME280;5610;52.154;9.198;2023-05-11T00:23:34;100511.84;;;14.56;100.00
11114;BME280;5610;52.154;9.198;2023-05-11T00:26:19;100507.19;;;14.59;100.00
11114;BME280;5610;52.154;9.198;2023-05-11T00:29:05;100513.31;;;14.61;100.00
11114;BME280;5610;52.154;9.198;2023-05-11T00:31:50;100505.84;;;14.64;100.00
11114;BME280;5610;52.154;9.198;2023-05-11T00:34:37;100507.47;;;14.67;100.00
11114;BME280;5610;52.154;9.198;2023-05-11T00:37:22;100510.13;;;14.67;100.00
11114;BME280;5610;52.154;9.198;2023-05-11T00:40:09;100503.53;;;14.71;100.00
11114;BME280;5610;52.154;9.198;2023-05-11T00:42:55;100503.31;;;14.74;100.00
11114;BME280;5610;52.154;9.198;2023-05-11T00:45:40;100506.56;;;14.77;100.00
11114;BME280;5610;52.154;9.198;2023-05-11T00:48:25;100505.72;;;14.77;100.00
11114;BME280;5610;52.154;9.198;2023-05-11T00:51:12;100504.16;;;14.74;100.00
11114;BME280;5610;52.154;9.198;2023-05-11T00:53:57;100501.94;;;14.79;100.00
11114;BME280;5610;52.154;9.198;2023-05-11T00:56:42;100501.69;;;14.82;100.00
11114;BME280;5610;52.154;9.198;2023-05-11T00:59:27;100505.94;;;14.85;100.00
11114;BME280;5610;52.154;9.198;2023-05-11T01:02:13;100507.66;;;14.86;100.00
11114;BME280;5610;52.154;9.198;2023-05-11T01:04:58;100503.03;;;14.88;100.00
11114;BME280;5610;52.154;9.198;2023-05-11T01:07:51;100513.63;;;14.90;100.00
11114;BME280;5610;52.154;9.198;2023-05-11T01:10:43;100510.22;;;14.88;100.00
11114;BME280;5610;52.154;9.198;2023-05-11T01:13:33;100505.72;;;14.88;100.00
11114;BME280;5610;52.154;9.198;2023-05-11T01:16:22;100516.31;;;14.90;100.00
11114;BME280;5610;52.154;9.198;2023-05-11T01:19:18;100514.47;;;14.90;100.00
11114;BME280;5610;52.154;9.198;2023-05-11T01:22:17;100509.97;;;14.91;100.00
11114;BME280;5610;52.154;9.198;2023-05-11T01:25:17;100504.72;;;14.89;100.00
11114;BME280;5610;52.154;9.198;2023-05-11T01:28:17;100511.06;;;14.88;100.00
11114;BME280;5610;52.154;9.198;2023-05-11T01:31:08;100505.72;;;14.88;100.00
11114;BME280;5610;52.154;9.198;2023-05-11T01:33:56;100510.69;;;14.93;100.00
11114;BME280;5610;52.154;9.198;2023-05-11T01:36:48;100515.19;;;14.92;100.00
11114;BME280;5610;52.154;9.198;2023-05-11T01:39:37;100508.00;;;14.93;100.00
11114;BME280;5610;52.154;9.198;2023-05-11T01:42:31;100514.00;;;14.96;100.00
11114;BME280;5610;52.154;9.198;2023-05-11T01:45:17;100510.59;;;14.94;100.00
11114;BME280;5610;52.154;9.198;2023-05-11T01:48:09;100513.28;;;14.94;100.00
11114;BME280;5610;52.154;9.198;2023-05-11T01:50:59;100515.81;;;14.96;100.00
11114;BME280;5610;52.154;9.198;2023-05-11T01:53:46;100512.28;;;14.95;100.00
11114;BME280;5610;52.154;9.198;2023-05-11T01:56:32;100515.47;;;14.89;100.00
11114;BME280;5610;52.154;9.198;2023-05-11T01:59:19;100512.78;;;14.89;100.00
11114;BME280;5610;52.154;9.198;2023-05-11T02:02:05;100523.66;;;14.88;100.00
11114;BME280;5610;52.154;9.198;2023-05-11T02:04:54;100519.84;;;14.90;100.00
11114;BME280;5610;52.154;9.198;2023-05-11T02:07:40;100526.19;;;14.89;100.00
11114;BME280;5610;52.154;9.198;2023-05-11T02:10:27;100515.69;;;14.86;100.00
11114;BME280;5610;52.154;9.198;2023-05-11T02:13:15;100525.00;;;14.82;100.00
11114;BME280;5610;52.154;9.198;2023-05-11T02:16:02;100526.19;;;14.78;100.00
11114;BME280;5610;52.154;9.198;2023-05-11T02:18:48;100522.19;;;14.83;100.00
11114;BME280;5610;52.154;9.198;2023-05-11T02:21:36;100526.81;;;14.81;100.00
11114;BME280;5610;52.154;9.198;2023-05-11T02:24:22;100529.38;;;14.83;100.00
11114;BME280;5610;52.154;9.198;2023-05-11T02:27:08;100521.91;;;14.87;100.00
11114;BME280;5610;52.154;9.198;2023-05-11T02:29:54;100531.19;;;14.82;100.00
11114;BME280;5610;52.154;9.198;2023-05-11T02:32:43;100529.38;;;14.83;100.00
11114;BME280;5610;52.154;9.198;2023-05-11T02:35:36;100520.69;;;14.79;100.00
11114;BME280;5610;52.154;9.198;2023-05-11T02:38:25;100534.59;;;14.84;100.00
11114;BME280;5610;52.154;9.198;2023-05-11T02:41:15;100527.41;;;14.85;100.00
11114;BME280;5610;52.154;9.198;2023-05-11T02:44:03;100525.47;;;14.87;100.00
11114;BME280;5610;52.154;9.198;2023-05-11T02:46:53;100532.53;;;14.88;100.00
11114;BME280;5610;52.154;9.198;2023-05-11T02:49:41;100523.88;;;14.84;100.00
11114;BME280;5610;52.154;9.198;2023-05-11T02:52:29;100524.00;;;14.83;100.00
11114;BME280;5610;52.154;9.198;2023-05-11T02:55:17;100531.06;;;14.84;100.00
11114;BME280;5610;52.154;9.198;2023-05-11T02:58:05;100529.09;;;14.86;100.00
11114;BME280;5610;52.154;9.198;2023-05-11T03:00:52;100531.56;;;14.89;100.00
11114;BME280;5610;52.154;9.198;2023-05-11T03:03:38;100517.53;;;14.86;100.00
11114;BME280;5610;52.154;9.198;2023-05-11T03:06:23;100530.94;;;14.86;100.00
11114;BME280;5610;52.154;9.198;2023-05-11T03:09:08;100531.69;;;14.88;100.00
11114;BME280;5610;52.154;9.198;2023-05-11T03:12:02;100527.28;;;14.87;100.00
11114;BME280;5610;52.154;9.198;2023-05-11T03:14:50;100524.50;;;14.88;100.00
11114;BME280;5610;52.154;9.198;2023-05-11T03:17:36;100535.09;;;14.90;100.00
11114;BME280;5610;52.154;9.198;2023-05-11T03:20:24;100529.59;;;14.91;100.00
11114;BME280;5610;52.154;9.198;2023-05-11T03:23:11;100528.63;;;14.92;100.00
11114;BME280;5610;52.154;9.198;2023-05-11T03:25:57;100526.53;;;14.96;100.00
11114;BME280;5610;52.154;9.198;2023-05-11T03:28:45;100528.47;;;14.94;100.00
11114;BME280;5610;52.154;9.198;2023-05-11T03:31:30;100529.94;;;14.98;100.00
11114;BME280;5610;52.154;9.198;2023-05-11T03:34:16;100525.44;;;14.98;100.00
11114;BME280;5610;52.154;9.198;2023-05-11T03:37:04;100523.47;;;15.00;100.00
11114;BME280;5610;52.154;9.198;2023-05-11T03:39:55;100521.91;;;14.98;100.00
11114;BME280;5610;52.154;9.198;2023-05-11T03:42:42;100523.47;;;15.00;100.00
11114;BME280;5610;52.154;9.198;2023-05-11T03:45:30;100519.84;;;15.01;100.00
11114;BME280;5610;52.154;9.198;2023-05-11T03:48:21;100526.28;;;14.99;100.00
11114;BME280;5610;52.154;9.198;2023-05-11T03:51:09;100522.75;;;14.98;100.00
11114;BME280;5610;52.154;9.198;2023-05-11T03:53:54;100523.72;;;14.97;100.00
11114;BME280;5610;52.154;9.198;2023-05-11T03:56:39;100517.53;;;14.97;100.00
11114;BME280;5610;52.154;9.198;2023-05-11T03:59:25;100524.44;;;14.99;100.00
11114;BME280;5610;52.154;9.198;2023-05-11T04:02:11;100519.84;;;15.01;100.00
11114;BME280;5610;52.154;9.198;2023-05-11T04:04:57;100523.09;;;15.05;100.00
11114;BME280;5610;52.154;9.198;2023-05-11T04:07:42;100522.13;;;15.06;100.00
11114;BME280;5610;52.154;9.198;2023-05-11T04:10:27;100517.88;;;15.03;100.00
11114;BME280;5610;52.154;9.198;2023-05-11T04:13:14;100525.78;;;15.05;100.00
11114;BME280;5610;52.154;9.198;2023-05-11T04:15:59;100524.81;;;15.06;100.00
11114;BME280;5610;52.154;9.198;2023-05-11T04:18:46;100524.81;;;15.06;100.00
11114;BME280;5610;52.154;9.198;2023-05-11T04:21:32;100525.53;;;15.08;100.00
11114;BME280;5610;52.154;9.198;2023-05-11T04:24:17;100525.53;;;15.08;100.00
11114;BME280;5610;52.154;9.198;2023-05-11T04:27:02;100526.50;;;15.07;100.00
11114;BME280;5610;52.154;9.198;2023-05-11T04:29:48;100528.97;;;15.10;100.00
11114;BME280;5610;52.154;9.198;2023-05-11T04:32:34;100521.03;;;15.08;100.00
11114;BME280;5610;52.154;9.198;2023-05-11T04:35:21;100530.78;;;15.09;100.00
11114;BME280;5610;52.154;9.198;2023-05-11T04:38:08;100528.81;;;15.11;100.00
11114;BME280;5610;52.154;9.198;2023-05-11T04:40:53;100532.22;;;15.14;100.00
11114;BME280;5610;52.154;9.198;2023-05-11T04:43:38;100534.78;;;15.15;100.00
11114;BME280;5610;52.154;9.198;2023-05-11T04:46:25;100541.75;;;15.18;100.00
11114;BME280;5610;52.154;9.198;2023-05-11T04:49:11;100533.56;;;15.19;100.00
11114;BME280;5610;52.154;9.198;2023-05-11T04:51:58;100537.09;;;15.20;100.00
11114;BME280;5610;52.154;9.198;2023-05-11T04:54:44;100543.31;;;15.20;100.00
11114;BME280;5610;52.154;9.198;2023-05-11T04:57:29;100539.41;;;15.24;100.00
11114;BME280;5610;52.154;9.198;2023-05-11T05:00:15;100538.16;;;15.28;100.00
11114;BME280;5610;52.154;9.198;2023-05-11T05:03:00;100535.38;;;15.30;100.00
11114;BME280;5610;52.154;9.198;2023-05-11T05:05:46;100541.44;;;15.32;100.00
11114;BME280;5610;52.154;9.198;2023-05-11T05:08:32;100539.34;;;15.35;100.00
11114;BME280;5610;52.154;9.198;2023-05-11T05:11:17;100541.38;;;15.43;100.00
11114;BME280;5610;52.154;9.198;2023-05-11T05:14:02;100541.50;;;15.53;100.00
11114;BME280;5610;52.154;9.198;2023-05-11T05:16:47;100548.28;;;15.57;100.00
11114;BME280;5610;52.154;9.198;2023-05-11T05:19:33;100548.06;;;15.60;100.00
11114;BME280;5610;52.154;9.198;2023-05-11T05:22:18;100550.97;;;15.68;100.00
11114;BME280;5610;52.154;9.198;2023-05-11T05:25:07;100549.19;;;15.78;100.00
11114;BME280;5610;52.154;9.198;2023-05-11T05:27:52;100546.84;;;15.85;100.00
11114;BME280;5610;52.154;9.198;2023-05-11T05:30:38;100552.69;;;15.90;100.00
11114;BME280;5610;52.154;9.198;2023-05-11T05:33:23;100548.63;;;15.96;100.00
11114;BME280;5610;52.154;9.198;2023-05-11T05:36:09;100551.91;;;15.99;100.00
11114;BME280;5610;52.154;9.198;2023-05-11T05:38:54;100554.19;;;16.04;100.00
11114;BME280;5610;52.154;9.198;2023-05-11T05:41:42;100562.13;;;16.05;100.00
11114;BME280;5610;52.154;9.198;2023-05-11T05:44:28;100563.81;;;16.06;100.00
11114;BME280;5610;52.154;9.198;2023-05-11T05:47:13;100566.25;;;16.09;100.00
11114;BME280;5610;52.154;9.198;2023-05-11T05:49:58;100566.41;;;16.08;100.00
11114;BME280;5610;52.154;9.198;2023-05-11T05:52:43;100572.16;;;16.03;100.00
11114;BME280;5610;52.154;9.198;2023-05-11T05:55:30;100576.41;;;16.06;100.00
11114;BME280;5610;52.154;9.198;2023-05-11T05:58:18;100573.47;;;16.09;100.00
11114;BME280;5610;52.154;9.198;2023-05-11T06:01:04;100580.56;;;16.10;100.00
11114;BME280;5610;52.154;9.198;2023-05-11T06:03:49;100578.72;;;16.10;100.00
11114;BME280;5610;52.154;9.198;2023-05-11T06:06:35;100583.25;;;16.10;100.00
11114;BME280;5610;52.154;9.198;2023-05-11T06:09:20;100586.06;;;16.08;100.00
11114;BME280;5610;52.154;9.198;2023-05-11T06:12:05;100587.78;;;16.09;100.00
11114;BME280;5610;52.154;9.198;2023-05-11T06:14:54;100584.09;;;16.10;100.00
11114;BME280;5610;52.154;9.198;2023-05-11T06:17:40;100588.63;;;16.10;100.00
11114;BME280;5610;52.154;9.198;2023-05-11T06:20:26;100590.31;;;16.11;100.00
11114;BME280;5610;52.154;9.198;2023-05-11T06:23:12;100586.78;;;16.10;100.00
11114;BME280;5610;52.154;9.198;2023-05-11T06:25:59;100591.03;;;16.13;100.00
11114;BME280;5610;52.154;9.198;2023-05-11T06:28:46;100580.59;;;16.19;100.00
11114;BME280;5610;52.154;9.198;2023-05-11T06:31:34;100585.31;;;16.27;100.00
11114;BME280;5610;52.154;9.198;2023-05-11T06:34:20;100588.22;;;16.35;100.00
11114;BME280;5610;52.154;9.198;2023-05-11T06:37:05;100584.72;;;16.44;100.00
11114;BME280;5610;52.154;9.198;2023-05-11T06:39:51;100585.03;;;16.51;100.00
11114;BME280;5610;52.154;9.198;2023-05-11T06:42:36;100583.66;;;16.57;100.00
11114;BME280;5610;52.154;9.198;2023-05-11T06:45:25;100584.94;;;16.62;100.00
11114;BME280;5610;52.154;9.198;2023-05-11T06:48:12;100579.03;;;16.68;100.00
11114;BME280;5610;52.154;9.198;2023-05-11T06:50:57;100583.19;;;16.72;100.00
11114;BME280;5610;52.154;9.198;2023-05-11T06:53:43;100585.19;;;16.70;100.00
11114;BME280;5610;52.154;9.198;2023-05-11T06:56:28;100583.66;;;16.78;100.00
11114;BME280;5610;52.154;9.198;2023-05-11T06:59:14;100585.06;;;16.82;100.00
11114;BME280;5610;52.154;9.198;2023-05-11T07:01:59;100593.00;;;16.83;100.00
11114;BME280;5610;52.154;9.198;2023-05-11T07:04:46;100593.16;;;16.91;100.00
11114;BME280;5610;52.154;9.198;2023-05-11T07:07:31;100592.75;;;16.96;100.00
11114;BME280;5610;52.154;9.198;2023-05-11T07:10:16;100587.97;;;16.99;100.00
11114;BME280;5610;52.154;9.198;2023-05-11T07:13:02;100588.28;;;17.06;100.00
11114;BME280;5610;52.154;9.198;2023-05-11T07:15:47;100596.78;;;17.11;100.00
11114;BME280;5610;52.154;9.198;2023-05-11T07:18:33;100592.81;;;17.15;100.00
11114;BME280;5610;52.154;9.198;2023-05-11T07:21:19;100586.91;;;17.21;100.00
11114;BME280;5610;52.154;9.198;2023-05-11T07:24:06;100591.72;;;17.27;100.00
11114;BME280;5610;52.154;9.198;2023-05-11T07:26:51;100590.03;;;17.36;100.00
11114;BME280;5610;52.154;9.198;2023-05-11T07:29:36;100594.03;;;17.51;100.00
11114;BME280;5610;52.154;9.198;2023-05-11T07:32:21;100601.25;;;17.61;100.00
11114;BME280;5610;52.154;9.198;2023-05-11T07:35:07;100594.19;;;17.69;100.00
11114;BME280;5610;52.154;9.198;2023-05-11T07:37:54;100593.22;;;17.80;100.00
11114;BME280;5610;52.154;9.198;2023-05-11T07:40:39;100600.03;;;17.84;100.00
11114;BME280;5610;52.154;9.198;2023-05-11T07:43:24;100593.34;;;17.88;100.00
11114;BME280;5610;52.154;9.198;2023-05-11T07:46:09;100591.38;;;17.90;100.00
11114;BME280;5610;52.154;9.198;2023-05-11T07:48:55;100603.97;;;17.90;100.00
11114;BME280;5610;52.154;9.198;2023-05-11T07:51:40;100595.19;;;17.88;100.00
11114;BME280;5610;52.154;9.198;2023-05-11T07:54:26;100599.44;;;17.80;100.00
11114;BME280;5610;52.154;9.198;2023-05-11T07:57:12;100603.28;;;17.78;100.00
11114;BME280;5610;52.154;9.198;2023-05-11T07:59:57;100595.47;;;17.75;100.00
11114;BME280;5610;52.154;9.198;2023-05-11T08:02:42;100598.31;;;17.73;100.00
11114;BME280;5610;52.154;9.198;2023-05-11T08:05:29;100602.28;;;17.69;100.00
11114;BME280;5610;52.154;9.198;2023-05-11T08:08:16;100605.69;;;17.71;100.00
11114;BME280;5610;52.154;9.198;2023-05-11T08:11:02;100598.47;;;17.72;100.00
11114;BME280;5610;52.154;9.198;2023-05-11T08:13:48;100608.41;;;17.71;100.00
11114;BME280;5610;52.154;9.198;2023-05-11T08:16:34;100600.00;;;17.74;100.00
11114;BME280;5610;52.154;9.198;2023-05-11T08:19:20;100603.59;;;17.84;100.00
11114;BME280;5610;52.154;9.198;2023-05-11T08:22:05;100607.56;;;17.90;100.00
11114;BME280;5610;52.154;9.198;2023-05-11T08:24:50;100604.25;;;17.96;100.00
11114;BME280;5610;52.154;9.198;2023-05-11T08:27:37;100607.81;;;18.06;100.00
11114;BME280;5610;52.154;9.198;2023-05-11T08:30:22;100610.78;;;18.13;100.00
11114;BME280;5610;52.154;9.198;2023-05-11T08:33:07;100606.94;;;18.16;100.00
11114;BME280;5610;52.154;9.198;2023-05-11T08:35:52;100602.28;;;18.08;100.00
11114;BME280;5610;52.154;9.198;2023-05-11T08:38:38;100608.66;;;18.07;100.00
11114;BME280;5610;52.154;9.198;2023-05-11T08:41:23;100606.53;;;18.10;100.00
11114;BME280;5610;52.154;9.198;2023-05-11T08:44:10;100608.78;;;18.15;100.00
11114;BME280;5610;52.154;9.198;2023-05-11T08:46:57;100610.34;;;18.18;100.00
11114;BME280;5610;52.154;9.198;2023-05-11T08:49:43;100603.97;;;18.19;100.00
11114;BME280;5610;52.154;9.198;2023-05-11T08:52:29;100608.22;;;18.21;100.00
11114;BME280;5610;52.154;9.198;2023-05-11T08:55:14;100600.41;;;18.28;100.00
11114;BME280;5610;52.154;9.198;2023-05-11T08:58:01;100600.84;;;18.33;100.00
11114;BME280;5610;52.154;9.198;2023-05-11T09:00:50;100610.16;;;18.38;100.00
11114;BME280;5610;52.154;9.198;2023-05-11T09:03:38;100604.03;;;18.46;100.00
11114;BME280;5610;52.154;9.198;2023-05-11T09:06:24;100611.97;;;18.57;100.00
11114;BME280;5610;52.154;9.198;2023-05-11T09:09:10;100611.69;;;18.70;100.00
11114;BME280;5610;52.154;9.198;2023-05-11T09:11:57;100615.75;;;18.84;100.00
11114;BME280;5610;52.154;9.198;2023-05-11T09:14:43;100608.59;;;18.92;100.00
11114;BME280;5610;52.154;9.198;2023-05-11T09:17:31;100612.16;;;18.93;100.00
11114;BME280;5610;52.154;9.198;2023-05-11T09:20:24;100603.09;;;18.84;100.00
11114;BME280;5610;52.154;9.198;2023-05-11T09:23:14;100615.34;;;18.79;100.00
11114;BME280;5610;52.154;9.198;2023-05-11T09:25:59;100611.19;;;18.84;100.00
11114;BME280;5610;52.154;9.198;2023-05-11T09:28:48;100610.03;;;18.87;100.00
11114;BME280;5610;52.154;9.198;2023-05-11T09:31:36;100612.19;;;18.83;100.00
11114;BME280;5610;52.154;9.198;2023-05-11T09:34:23;100609.25;;;18.77;100.00
11114;BME280;5610;52.154;9.198;2023-05-11T09:37:15;100618.34;;;18.76;100.00
11114;BME280;5610;52.154;9.198;2023-05-11T09:40:00;100606.13;;;18.72;100.00
11114;BME280;5610;52.154;9.198;2023-05-11T09:42:46;100611.94;;;18.77;100.00
11114;BME280;5610;52.154;9.198;2023-05-11T09:45:38;100614.44;;;18.88;100.00
11114;BME280;5610;52.154;9.198;2023-05-11T09:48:26;100610.63;;;18.90;100.00
11114;BME280;5610;52.154;9.198;2023-05-11T09:51:12;100611.03;;;18.86;100.00
11114;BME280;5610;52.154;9.198;2023-05-11T09:54:00;100611.47;;;18.91;100.00
11114;BME280;5610;52.154;9.198;2023-05-11T09:56:48;100610.41;;;19.02;100.00
11114;BME280;5610;52.154;9.198;2023-05-11T09:59:38;100605.75;;;19.21;100.00
11114;BME280;5610;52.154;9.198;2023-05-11T10:02:25;100613.50;;;19.34;100.00
11114;BME280;5610;52.154;9.198;2023-05-11T10:05:11;100602.56;;;19.54;100.00
11114;BME280;5610;52.154;9.198;2023-05-11T10:08:00;100607.00;;;19.72;100.00
11114;BME280;5610;52.154;9.198;2023-05-11T10:10:46;100603.66;;;19.79;100.00
11114;BME280;5610;52.154;9.198;2023-05-11T10:13:31;100599.75;;;19.91;100.00
11114;BME280;5610;52.154;9.198;2023-05-11T10:16:18;100609.47;;;20.01;100.00
11114;BME280;5610;52.154;9.198;2023-05-11T10:19:04;100599.56;;;20.10;100.00
11114;BME280;5610;52.154;9.198;2023-05-11T10:21:50;100601.47;;;20.18;100.00
11114;BME280;5610;52.154;9.198;2023-05-11T10:24:37;100596.06;;;20.18;100.00
11114;BME280;5610;52.154;9.198;2023-05-11T10:27:23;100595.00;;;20.11;100.00
11114;BME280;5610;52.154;9.198;2023-05-11T10:30:10;100595.72;;;19.95;100.00
11114;BME280;5610;52.154;9.198;2023-05-11T10:32:56;100598.81;;;19.82;100.00
11114;BME280;5610;52.154;9.198;2023-05-11T10:35:42;100592.41;;;19.65;100.00
11114;BME280;5610;52.154;9.198;2023-05-11T10:38:28;100593.03;;;19.59;100.00
11114;BME280;5610;52.154;9.198;2023-05-11T10:41:24;100591.72;;;19.63;100.00
11114;BME280;5610;52.154;9.198;2023-05-11T10:51:12;100589.50;;;21.06;100.00
11114;BME280;5610;52.154;9.198;2023-05-11T10:54:25;100592.41;;;21.21;100.00
11114;BME280;5610;52.154;9.198;2023-05-11T10:57:27;100586.56;;;21.42;100.00
11114;BME280;5610;52.154;9.198;2023-05-11T11:00:56;100588.81;;;21.04;100.00
11114;BME280;5610;52.154;9.198;2023-05-11T11:03:57;100592.19;;;21.06;100.00
11114;BME280;5610;52.154;9.198;2023-05-11T11:06:45;100586.47;;;21.09;100.00
11114;BME280;5610;52.154;9.198;2023-05-11T11:09:51;100585.00;;;21.23;100.00
11114;BME280;5610;52.154;9.198;2023-05-11T11:12:39;100581.19;;;21.50;100.00
11114;BME280;5610;52.154;9.198;2023-05-11T11:15:25;100594.78;;;21.66;100.00
11114;BME280;5610;52.154;9.198;2023-05-11T11:18:30;100588.50;;;21.99;100.00
11114;BME280;5610;52.154;9.198;2023-05-11T11:21:38;100580.53;;;22.38;100.00
11114;BME280;5610;52.154;9.198;2023-05-11T11:24:41;100578.78;;;22.69;100.00
11114;BME280;5610;52.154;9.198;2023-05-11T11:27:54;100578.16;;;22.43;100.00
11114;BME280;5610;52.154;9.198;2023-05-11T11:30:40;100590.75;;;22.11;100.00
11114;BME280;5610;52.154;9.198;2023-05-11T11:33:30;100585.94;;;21.56;100.00
11114;BME280;5610;52.154;9.198;2023-05-11T11:36:17;100587.25;;;21.36;100.00
11114;BME280;5610;52.154;9.198;2023-05-11T11:39:02;100581.56;;;21.21;100.00
11114;BME280;5610;52.154;9.198;2023-05-11T11:41:58;100588.00;;;21.12;100.00
11114;BME280;5610;52.154;9.198;2023-05-11T11:44:45;100585.53;;;20.93;100.00
11114;BME280;5610;52.154;9.198;2023-05-11T11:47:31;100592.25;;;20.72;100.00
11114;BME280;5610;52.154;9.198;2023-05-11T11:50:17;100591.91;;;20.75;100.00
11114;BME280;5610;52.154;9.198;2023-05-11T11:53:03;100586.09;;;20.70;100.00
11114;BME280;5610;52.154;9.198;2023-05-11T11:55:49;100587.41;;;20.58;100.00
11114;BME280;5610;52.154;9.198;2023-05-11T11:58:57;100586.75;;;20.38;100.00
11114;BME280;5610;52.154;9.198;2023-05-11T12:01:44;100586.53;;;20.32;100.00
11114;BME280;5610;52.154;9.198;2023-05-11T12:04:51;100588.44;;;20.39;100.00
11114;BME280;5610;52.154;9.198;2023-05-11T12:07:41;100581.81;;;20.34;100.00
11114;BME280;5610;52.154;9.198;2023-05-11T12:10:27;100584.28;;;20.27;100.00
11114;BME280;5610;52.154;9.198;2023-05-11T12:13:12;100590.72;;;20.26;100.00
11114;BME280;5610;52.154;9.198;2023-05-11T12:16:07;100588.38;;;20.05;100.00
11114;BME280;5610;52.154;9.198;2023-05-11T12:18:55;100586.06;;;19.92;100.00
11114;BME280;5610;52.154;9.198;2023-05-11T12:21:43;100585.84;;;19.68;100.00
11114;BME280;5610;52.154;9.198;2023-05-11T12:24:29;100585.19;;;19.38;100.00
11114;BME280;5610;52.154;9.198;2023-05-11T12:27:15;100586.84;;;19.21;100.00
11114;BME280;5610;52.154;9.198;2023-05-11T12:30:01;100583.81;;;19.07;100.00
11114;BME280;5610;52.154;9.198;2023-05-11T12:32:46;100583.13;;;18.95;100.00
11114;BME280;5610;52.154;9.198;2023-05-11T12:35:33;100592.22;;;19.04;100.00
11114;BME280;5610;52.154;9.198;2023-05-11T12:38:19;100578.81;;;19.12;100.00
11114;BME280;5610;52.154;9.198;2023-05-11T12:41:04;100583.81;;;19.07;100.00
11114;BME280;5610;52.154;9.198;2023-05-11T12:43:51;100582.09;;;19.06;100.00
11114;BME280;5610;52.154;9.198;2023-05-11T12:46:36;100580.78;;;19.10;100.00
11114;BME280;5610;52.154;9.198;2023-05-11T12:49:23;100577.47;;;19.16;100.00
11114;BME280;5610;52.154;9.198;2023-05-11T12:52:12;100585.16;;;19.20;100.00
11114;BME280;5610;52.154;9.198;2023-05-11T12:54:57;100575.78;;;19.15;100.00
11114;BME280;5610;52.154;9.198;2023-05-11T12:57:43;100575.50;;;19.18;100.00
11114;BME280;5610;52.154;9.198;2023-05-11T13:00:29;100576.38;;;19.09;100.00
11114;BME280;5610;52.154;9.198;2023-05-11T13:03:20;100573.16;;;19.05;100.00
11114;BME280;5610;52.154;9.198;2023-05-11T13:06:06;100579.00;;;19.01;100.00
11114;BME280;5610;52.154;9.198;2023-05-11T13:08:53;100573.34;;;18.94;100.00
11114;BME280;5610;52.154;9.198;2023-05-11T13:11:39;100570.22;;;18.99;100.00
11114;BME280;5610;52.154;9.198;2023-05-11T13:14:24;100578.00;;;19.02;100.00
11114;BME280;5610;52.154;9.198;2023-05-11T13:17:09;100573.91;;;18.98;100.00
11114;BME280;5610;52.154;9.198;2023-05-11T13:19:55;100573.50;;;18.92;100.00
11114;BME280;5610;52.154;9.198;2023-05-11T13:22:40;100567.78;;;18.96;100.00
11114;BME280;5610;52.154;9.198;2023-05-11T13:25:27;100566.34;;;19.01;100.00
11114;BME280;5610;52.154;9.198;2023-05-11T13:28:13;100564.75;;;19.08;100.00
11114;BME280;5610;52.154;9.198;2023-05-11T13:30:59;100555.59;;;19.19;100.00
11114;BME280;5610;52.154;9.198;2023-05-11T13:33:45;100563.84;;;19.35;100.00
11114;BME280;5610;52.154;9.198;2023-05-11T13:36:30;100559.53;;;19.42;100.00
11114;BME280;5610;52.154;9.198;2023-05-11T13:39:15;100556.44;;;19.37;100.00
11114;BME280;5610;52.154;9.198;2023-05-11T13:42:02;100559.66;;;19.23;100.00
11114;BME280;5610;52.154;9.198;2023-05-11T13:44:47;100558.47;;;18.90;100.00
11114;BME280;5610;52.154;9.198;2023-05-11T13:47:33;100563.09;;;18.70;100.00
11114;BME280;5610;52.154;9.198;2023-05-11T13:50:19;100573.66;;;18.54;100.00
11114;BME280;5610;52.154;9.198;2023-05-11T13:53:04;100563.56;;;18.46;100.00
11114;BME280;5610;52.154;9.198;2023-05-11T13:55:49;100556.72;;;18.52;100.00
11114;BME280;5610;52.154;9.198;2023-05-11T13:58:36;100552.06;;;18.54;100.00
11114;BME280;5610;52.154;9.198;2023-05-11T14:01:21;100557.84;;;18.59;100.00
11114;BME280;5610;52.154;9.198;2023-05-11T14:04:06;100558.00;;;18.57;100.00
11114;BME280;5610;52.154;9.198;2023-05-11T14:06:52;100556.72;;;18.61;100.00
11114;BME280;5610;52.154;9.198;2023-05-11T14:09:37;100551.16;;;18.73;100.00
11114;BME280;5610;52.154;9.198;2023-05-11T14:12:23;100538.84;;;18.88;100.00
11114;BME280;5610;52.154;9.198;2023-05-11T14:15:10;100550.81;;;18.85;100.00
11114;BME280;5610;52.154;9.198;2023-05-11T14:17:55;100545.19;;;18.59;100.00
11114;BME280;5610;52.154;9.198;2023-05-11T14:20:40;100543.44;;;18.41;100.00
11114;BME280;5610;52.154;9.198;2023-05-11T14:23:26;100536.53;;;18.28;100.00
11114;BME280;5610;52.154;9.198;2023-05-11T14:26:11;100544.03;;;18.34;100.00
11114;BME280;5610;52.154;9.198;2023-05-11T14:28:56;100549.28;;;18.36;100.00
11114;BME280;5610;52.154;9.198;2023-05-11T14:31:43;100547.38;;;18.46;100.00
11114;BME280;5610;52.154;9.198;2023-05-11T14:34:29;100531.19;;;18.46;100.00
11114;BME280;5610;52.154;9.198;2023-05-11T14:37:15;100538.06;;;18.41;100.00
11114;BME280;5610;52.154;9.198;2023-05-11T14:40:00;100537.94;;;18.32;100.00
11114;BME280;5610;52.154;9.198;2023-05-11T14:42:45;100538.66;;;18.25;100.00